sensor_id;sensor_type;location;lat;lon;timestamp;P1;durP1;ratioP1;P2;durP2;ratioP2
64520;SDS011;50896;46.714;17.322;2024-02-04T00:00:27;26.40;;;14.25;;
64520;SDS011;50896;46.714;17.322;2024-02-04T00:02:54;21.90;;;13.32;;
64520;SDS011;50896;46.714;17.322;2024-02-04T00:05:20;22.45;;;13.20;;
64520;SDS011;50896;46.714;17.322;2024-02-04T00:07:48;22.92;;;13.35;;
64520;SDS011;50896;46.714;17.322;2024-02-04T00:10:15;23.02;;;13.50;;
64520;SDS011;50896;46.714;17.322;2024-02-04T00:12:44;20.73;;;13.43;;
64520;SDS011;50896;46.714;17.322;2024-02-04T00:15:11;22.60;;;13.55;;
64520;SDS011;50896;46.714;17.322;2024-02-04T00:17:38;22.23;;;13.77;;
64520;SDS011;50896;46.714;17.322;2024-02-04T00:20:05;23.95;;;13.38;;
64520;SDS011;50896;46.714;17.322;2024-02-04T00:22:34;24.17;;;14.38;;
64520;SDS011;50896;46.714;17.322;2024-02-04T00:25:01;25.52;;;14.52;;
64520;SDS011;50896;46.714;17.322;2024-02-04T00:27:32;22.42;;;13.45;;
64520;SDS011;50896;46.714;17.322;2024-02-04T00:29:59;24.92;;;14.55;;
64520;SDS011;50896;46.714;17.322;2024-02-04T00:32:26;24.23;;;13.27;;
64520;SDS011;50896;46.714;17.322;2024-02-04T00:34:53;25.50;;;13.80;;
64520;SDS011;50896;46.714;17.322;2024-02-04T00:37:20;23.63;;;14.43;;
64520;SDS011;50896;46.714;17.322;2024-02-04T00:39:47;22.95;;;13.73;;
64520;SDS011;50896;46.714;17.322;2024-02-04T00:42:14;19.70;;;13.50;;
64520;SDS011;50896;46.714;17.322;2024-02-04T00:44:41;21.13;;;12.82;;
64520;SDS011;50896;46.714;17.322;2024-02-04T00:47:08;23.23;;;12.93;;
64520;SDS011;50896;46.714;17.322;2024-02-04T00:49:35;23.88;;;14.18;;
64520;SDS011;50896;46.714;17.322;2024-02-04T00:52:02;27.02;;;13.10;;
64520;SDS011;50896;46.714;17.322;2024-02-04T00:54:29;22.88;;;13.00;;
64520;SDS011;50896;46.714;17.322;2024-02-04T00:56:56;21.83;;;12.95;;
64520;SDS011;50896;46.714;17.322;2024-02-04T00:59:23;23.10;;;13.00;;
64520;SDS011;50896;46.714;17.322;2024-02-04T01:01:51;21.75;;;13.65;;
64520;SDS011;50896;46.714;17.322;2024-02-04T01:04:18;25.20;;;14.05;;
64520;SDS011;50896;46.714;17.322;2024-02-04T01:06:45;21.73;;;14.10;;
64520;SDS011;50896;46.714;17.322;2024-02-04T01:09:26;21.85;;;13.48;;
64520;SDS011;50896;46.714;17.322;2024-02-04T01:11:54;22.27;;;13.50;;
64520;SDS011;50896;46.714;17.322;2024-02-04T01:14:21;22.85;;;13.80;;
64520;SDS011;50896;46.714;17.322;2024-02-04T01:16:48;24.63;;;12.45;;
64520;SDS011;50896;46.714;17.322;2024-02-04T01:19:15;22.23;;;12.93;;
64520;SDS011;50896;46.714;17.322;2024-02-04T01:21:42;18.17;;;12.23;;
64520;SDS011;50896;46.714;17.322;2024-02-04T01:24:10;21.23;;;12.23;;
64520;SDS011;50896;46.714;17.322;2024-02-04T01:26:37;22.85;;;13.13;;
64520;SDS011;50896;46.714;17.322;2024-02-04T01:29:04;21.75;;;12.60;;
64520;SDS011;50896;46.714;17.322;2024-02-04T01:31:31;22.50;;;12.50;;
64520;SDS011;50896;46.714;17.322;2024-02-04T01:33:59;20.33;;;12.32;;
64520;SDS011;50896;46.714;17.322;2024-02-04T01:36:26;21.70;;;12.60;;
64520;SDS011;50896;46.714;17.322;2024-02-04T01:38:53;21.17;;;13.25;;
64520;SDS011;50896;46.714;17.322;2024-02-04T01:41:20;21.00;;;12.30;;
64520;SDS011;50896;46.714;17.322;2024-02-04T01:43:47;19.55;;;12.32;;
64520;SDS011;50896;46.714;17.322;2024-02-04T01:46:13;21.35;;;12.40;;
64520;SDS011;50896;46.714;17.322;2024-02-04T01:48:40;19.23;;;11.68;;
64520;SDS011;50896;46.714;17.322;2024-02-04T01:51:07;19.17;;;11.38;;
64520;SDS011;50896;46.714;17.322;2024-02-04T01:53:35;20.02;;;11.18;;
64520;SDS011;50896;46.714;17.322;2024-02-04T01:56:05;17.00;;;10.90;;
64520;SDS011;50896;46.714;17.322;2024-02-04T01:58:32;18.13;;;10.80;;
64520;SDS011;50896;46.714;17.322;2024-02-04T02:01:00;17.45;;;10.23;;
64520;SDS011;50896;46.714;17.322;2024-02-04T02:03:28;17.13;;;10.13;;
64520;SDS011;50896;46.714;17.322;2024-02-04T02:05:58;15.93;;;9.60;;
64520;SDS011;50896;46.714;17.322;2024-02-04T02:08:26;17.55;;;10.40;;
64520;SDS011;50896;46.714;17.322;2024-02-04T02:10:56;15.70;;;9.45;;
64520;SDS011;50896;46.714;17.322;2024-02-04T02:13:30;16.40;;;9.50;;
64520;SDS011;50896;46.714;17.322;2024-02-04T02:16:02;16.98;;;9.88;;
64520;SDS011;50896;46.714;17.322;2024-02-04T02:18:47;16.77;;;9.95;;
64520;SDS011;50896;46.714;17.322;2024-02-04T02:21:52;19.25;;;10.63;;
64520;SDS011;50896;46.714;17.322;2024-02-04T02:26:54;16.77;;;10.40;;
64520;SDS011;50896;46.714;17.322;2024-02-04T02:31:51;15.27;;;9.27;;
64520;SDS011;50896;46.714;17.322;2024-02-04T02:34:18;14.65;;;9.77;;
64520;SDS011;50896;46.714;17.322;2024-02-04T02:39:42;18.48;;;9.82;;
64520;SDS011;50896;46.714;17.322;2024-02-04T02:42:15;12.85;;;8.80;;
64520;SDS011;50896;46.714;17.322;2024-02-04T02:44:44;14.85;;;8.85;;
64520;SDS011;50896;46.714;17.322;2024-02-04T02:47:12;12.88;;;9.15;;
64520;SDS011;50896;46.714;17.322;2024-02-04T02:49:42;16.23;;;9.20;;
64520;SDS011;50896;46.714;17.322;2024-02-04T02:52:09;16.42;;;10.20;;
64520;SDS011;50896;46.714;17.322;2024-02-04T02:54:36;15.70;;;10.02;;
64520;SDS011;50896;46.714;17.322;2024-02-04T02:57:03;16.33;;;9.75;;
64520;SDS011;50896;46.714;17.322;2024-02-04T02:59:30;17.15;;;11.00;;
64520;SDS011;50896;46.714;17.322;2024-02-04T03:01:57;15.65;;;10.50;;
64520;SDS011;50896;46.714;17.322;2024-02-04T03:04:24;15.52;;;10.27;;
64520;SDS011;50896;46.714;17.322;2024-02-04T03:06:51;15.52;;;10.30;;
64520;SDS011;50896;46.714;17.322;2024-02-04T03:09:18;16.67;;;10.35;;
64520;SDS011;50896;46.714;17.322;2024-02-04T03:11:44;17.52;;;9.75;;
64520;SDS011;50896;46.714;17.322;2024-02-04T03:14:16;13.70;;;9.05;;
64520;SDS011;50896;46.714;17.322;2024-02-04T03:16:44;15.02;;;8.63;;
64520;SDS011;50896;46.714;17.322;2024-02-04T03:19:12;14.40;;;8.57;;
64520;SDS011;50896;46.714;17.322;2024-02-04T03:21:39;14.38;;;8.68;;
64520;SDS011;50896;46.714;17.322;2024-02-04T03:24:06;14.50;;;9.02;;
64520;SDS011;50896;46.714;17.322;2024-02-04T03:26:34;15.20;;;8.90;;
64520;SDS011;50896;46.714;17.322;2024-02-04T03:29:01;13.10;;;8.68;;
64520;SDS011;50896;46.714;17.322;2024-02-04T03:31:31;14.65;;;8.77;;
64520;SDS011;50896;46.714;17.322;2024-02-04T03:33:59;14.02;;;8.52;;
64520;SDS011;50896;46.714;17.322;2024-02-04T03:36:27;13.38;;;8.43;;
64520;SDS011;50896;46.714;17.322;2024-02-04T03:38:54;14.00;;;8.10;;
64520;SDS011;50896;46.714;17.322;2024-02-04T03:41:21;11.45;;;7.70;;
64520;SDS011;50896;46.714;17.322;2024-02-04T03:43:48;11.15;;;7.55;;
64520;SDS011;50896;46.714;17.322;2024-02-04T03:46:15;10.85;;;7.40;;
64520;SDS011;50896;46.714;17.322;2024-02-04T03:48:42;14.10;;;7.30;;
64520;SDS011;50896;46.714;17.322;2024-02-04T03:51:15;13.43;;;8.10;;
64520;SDS011;50896;46.714;17.322;2024-02-04T03:53:47;14.65;;;8.85;;
64520;SDS011;50896;46.714;17.322;2024-02-04T03:56:15;14.55;;;9.07;;
64520;SDS011;50896;46.714;17.322;2024-02-04T03:58:43;16.27;;;9.55;;
64520;SDS011;50896;46.714;17.322;2024-02-04T04:01:10;14.45;;;9.05;;
64520;SDS011;50896;46.714;17.322;2024-02-04T04:03:39;16.88;;;9.65;;
64520;SDS011;50896;46.714;17.322;2024-02-04T04:06:08;16.07;;;10.23;;
64520;SDS011;50896;46.714;17.322;2024-02-04T04:08:38;20.60;;;11.75;;
64520;SDS011;50896;46.714;17.322;2024-02-04T04:11:07;17.67;;;10.88;;
64520;SDS011;50896;46.714;17.322;2024-02-04T04:13:35;17.80;;;10.85;;
64520;SDS011;50896;46.714;17.322;2024-02-04T04:16:03;15.98;;;10.23;;
64520;SDS011;50896;46.714;17.322;2024-02-04T04:18:31;15.07;;;10.20;;
64520;SDS011;50896;46.714;17.322;2024-02-04T04:20:58;16.20;;;9.32;;
64520;SDS011;50896;46.714;17.322;2024-02-04T04:23:25;16.15;;;10.30;;
64520;SDS011;50896;46.714;17.322;2024-02-04T04:25:52;16.20;;;10.32;;
64520;SDS011;50896;46.714;17.322;2024-02-04T04:28:18;16.75;;;10.27;;
64520;SDS011;50896;46.714;17.322;2024-02-04T04:30:45;17.05;;;10.48;;
64520;SDS011;50896;46.714;17.322;2024-02-04T04:33:12;18.83;;;12.68;;
64520;SDS011;50896;46.714;17.322;2024-02-04T04:35:40;21.35;;;12.07;;
64520;SDS011;50896;46.714;17.322;2024-02-04T04:38:06;19.85;;;12.30;;
64520;SDS011;50896;46.714;17.322;2024-02-04T04:40:33;18.77;;;11.23;;
64520;SDS011;50896;46.714;17.322;2024-02-04T04:43:00;17.05;;;10.95;;
64520;SDS011;50896;46.714;17.322;2024-02-04T04:45:27;19.60;;;11.77;;
64520;SDS011;50896;46.714;17.322;2024-02-04T04:47:54;22.40;;;14.32;;
64520;SDS011;50896;46.714;17.322;2024-02-04T04:50:21;22.00;;;13.90;;
64520;SDS011;50896;46.714;17.322;2024-02-04T04:52:49;23.35;;;16.40;;
64520;SDS011;50896;46.714;17.322;2024-02-04T04:55:16;21.65;;;14.55;;
64520;SDS011;50896;46.714;17.322;2024-02-04T04:57:43;24.70;;;15.43;;
64520;SDS011;50896;46.714;17.322;2024-02-04T05:00:11;19.73;;;12.45;;
64520;SDS011;50896;46.714;17.322;2024-02-04T05:02:39;20.83;;;13.10;;
64520;SDS011;50896;46.714;17.322;2024-02-04T05:05:06;19.95;;;13.73;;
64520;SDS011;50896;46.714;17.322;2024-02-04T05:07:33;22.17;;;13.18;;
64520;SDS011;50896;46.714;17.322;2024-02-04T05:10:00;19.88;;;13.20;;
64520;SDS011;50896;46.714;17.322;2024-02-04T05:12:27;18.00;;;12.32;;
64520;SDS011;50896;46.714;17.322;2024-02-04T05:14:54;19.80;;;12.50;;
64520;SDS011;50896;46.714;17.322;2024-02-04T05:17:21;17.35;;;11.65;;
64520;SDS011;50896;46.714;17.322;2024-02-04T05:19:48;20.45;;;13.40;;
64520;SDS011;50896;46.714;17.322;2024-02-04T05:22:15;25.67;;;14.63;;
64520;SDS011;50896;46.714;17.322;2024-02-04T05:24:43;23.08;;;14.38;;
64520;SDS011;50896;46.714;17.322;2024-02-04T05:27:10;24.17;;;14.77;;
64520;SDS011;50896;46.714;17.322;2024-02-04T05:29:37;21.35;;;13.27;;
64520;SDS011;50896;46.714;17.322;2024-02-04T05:32:03;21.17;;;14.10;;
64520;SDS011;50896;46.714;17.322;2024-02-04T05:34:30;18.80;;;12.40;;
64520;SDS011;50896;46.714;17.322;2024-02-04T05:36:58;21.80;;;13.30;;
64520;SDS011;50896;46.714;17.322;2024-02-04T05:39:25;22.02;;;13.25;;
64520;SDS011;50896;46.714;17.322;2024-02-04T05:41:52;22.67;;;13.13;;
64520;SDS011;50896;46.714;17.322;2024-02-04T05:44:19;22.58;;;12.90;;
64520;SDS011;50896;46.714;17.322;2024-02-04T05:46:46;21.17;;;12.23;;
64520;SDS011;50896;46.714;17.322;2024-02-04T05:49:12;21.92;;;12.35;;
64520;SDS011;50896;46.714;17.322;2024-02-04T05:51:40;20.83;;;12.85;;
64520;SDS011;50896;46.714;17.322;2024-02-04T05:54:08;22.48;;;13.35;;
64520;SDS011;50896;46.714;17.322;2024-02-04T05:56:35;21.48;;;13.75;;
64520;SDS011;50896;46.714;17.322;2024-02-04T05:59:02;20.83;;;13.52;;
64520;SDS011;50896;46.714;17.322;2024-02-04T06:01:29;20.98;;;13.40;;
64520;SDS011;50896;46.714;17.322;2024-02-04T06:03:55;22.13;;;14.32;;
64520;SDS011;50896;46.714;17.322;2024-02-04T06:06:23;23.40;;;14.85;;
64520;SDS011;50896;46.714;17.322;2024-02-04T06:08:50;24.17;;;15.38;;
64520;SDS011;50896;46.714;17.322;2024-02-04T06:11:18;23.05;;;13.93;;
64520;SDS011;50896;46.714;17.322;2024-02-04T06:13:45;22.55;;;14.32;;
64520;SDS011;50896;46.714;17.322;2024-02-04T06:16:12;22.60;;;14.13;;
64520;SDS011;50896;46.714;17.322;2024-02-04T06:18:39;23.23;;;14.20;;
64520;SDS011;50896;46.714;17.322;2024-02-04T06:21:06;22.95;;;14.00;;
64520;SDS011;50896;46.714;17.322;2024-02-04T06:23:34;25.23;;;14.65;;
64520;SDS011;50896;46.714;17.322;2024-02-04T06:26:01;20.00;;;12.55;;
64520;SDS011;50896;46.714;17.322;2024-02-04T06:28:29;22.35;;;13.93;;
64520;SDS011;50896;46.714;17.322;2024-02-04T06:30:56;22.58;;;14.38;;
64520;SDS011;50896;46.714;17.322;2024-02-04T06:33:23;24.15;;;15.27;;
64520;SDS011;50896;46.714;17.322;2024-02-04T06:35:52;19.88;;;11.85;;
64520;SDS011;50896;46.714;17.322;2024-02-04T06:38:19;20.23;;;12.20;;
64520;SDS011;50896;46.714;17.322;2024-02-04T06:40:46;18.73;;;10.52;;
64520;SDS011;50896;46.714;17.322;2024-02-04T06:43:13;16.70;;;10.95;;
64520;SDS011;50896;46.714;17.322;2024-02-04T06:45:40;18.17;;;11.00;;
64520;SDS011;50896;46.714;17.322;2024-02-04T06:48:07;18.45;;;11.60;;
64520;SDS011;50896;46.714;17.322;2024-02-04T06:50:34;20.10;;;12.07;;
64520;SDS011;50896;46.714;17.322;2024-02-04T06:53:01;26.73;;;15.63;;
64520;SDS011;50896;46.714;17.322;2024-02-04T06:55:28;28.33;;;16.70;;
64520;SDS011;50896;46.714;17.322;2024-02-04T06:57:55;22.20;;;13.10;;
64520;SDS011;50896;46.714;17.322;2024-02-04T07:00:22;19.38;;;12.02;;
64520;SDS011;50896;46.714;17.322;2024-02-04T07:02:49;25.30;;;14.30;;
64520;SDS011;50896;46.714;17.322;2024-02-04T07:05:15;21.73;;;13.50;;
64520;SDS011;50896;46.714;17.322;2024-02-04T07:07:42;36.22;;;20.25;;
64520;SDS011;50896;46.714;17.322;2024-02-04T07:10:09;45.38;;;23.27;;
64520;SDS011;50896;46.714;17.322;2024-02-04T07:12:36;36.13;;;20.02;;
64520;SDS011;50896;46.714;17.322;2024-02-04T07:15:04;26.27;;;15.98;;
64520;SDS011;50896;46.714;17.322;2024-02-04T07:17:31;24.13;;;14.20;;
64520;SDS011;50896;46.714;17.322;2024-02-04T07:19:57;19.75;;;12.88;;
64520;SDS011;50896;46.714;17.322;2024-02-04T07:22:25;24.13;;;14.05;;
64520;SDS011;50896;46.714;17.322;2024-02-04T07:24:52;20.60;;;13.75;;
64520;SDS011;50896;46.714;17.322;2024-02-04T07:27:19;18.77;;;13.18;;
64520;SDS011;50896;46.714;17.322;2024-02-04T07:29:46;21.23;;;13.05;;
64520;SDS011;50896;46.714;17.322;2024-02-04T07:32:16;23.23;;;13.82;;
64520;SDS011;50896;46.714;17.322;2024-02-04T07:34:42;23.10;;;13.43;;
64520;SDS011;50896;46.714;17.322;2024-02-04T07:37:10;21.73;;;13.43;;
64520;SDS011;50896;46.714;17.322;2024-02-04T07:39:37;19.27;;;12.43;;
64520;SDS011;50896;46.714;17.322;2024-02-04T07:42:04;22.20;;;13.85;;
64520;SDS011;50896;46.714;17.322;2024-02-04T07:44:31;22.55;;;13.00;;
64520;SDS011;50896;46.714;17.322;2024-02-04T07:46:58;19.55;;;12.75;;
64520;SDS011;50896;46.714;17.322;2024-02-04T07:49:25;22.52;;;13.05;;
64520;SDS011;50896;46.714;17.322;2024-02-04T07:51:52;22.25;;;13.02;;
64520;SDS011;50896;46.714;17.322;2024-02-04T07:54:19;20.77;;;13.43;;
64520;SDS011;50896;46.714;17.322;2024-02-04T07:56:45;18.45;;;12.27;;
64520;SDS011;50896;46.714;17.322;2024-02-04T07:59:12;19.85;;;12.20;;
64520;SDS011;50896;46.714;17.322;2024-02-04T08:01:39;19.33;;;12.00;;
64520;SDS011;50896;46.714;17.322;2024-02-04T08:04:07;23.33;;;12.88;;
64520;SDS011;50896;46.714;17.322;2024-02-04T08:06:37;20.95;;;13.55;;
64520;SDS011;50896;46.714;17.322;2024-02-04T08:09:04;22.05;;;15.32;;
64520;SDS011;50896;46.714;17.322;2024-02-04T08:11:31;20.88;;;14.95;;
64520;SDS011;50896;46.714;17.322;2024-02-04T08:13:58;22.48;;;14.60;;
64520;SDS011;50896;46.714;17.322;2024-02-04T08:16:26;21.67;;;13.88;;
64520;SDS011;50896;46.714;17.322;2024-02-04T08:18:53;24.33;;;14.48;;
64520;SDS011;50896;46.714;17.322;2024-02-04T08:21:20;22.90;;;14.20;;
64520;SDS011;50896;46.714;17.322;2024-02-04T08:23:47;21.75;;;14.32;;
64520;SDS011;50896;46.714;17.322;2024-02-04T08:26:14;26.80;;;16.08;;
64520;SDS011;50896;46.714;17.322;2024-02-04T08:28:41;36.17;;;20.33;;
64520;SDS011;50896;46.714;17.322;2024-02-04T08:31:08;32.25;;;19.73;;
64520;SDS011;50896;46.714;17.322;2024-02-04T08:33:35;34.13;;;19.10;;
64520;SDS011;50896;46.714;17.322;2024-02-04T08:36:02;31.13;;;18.10;;
64520;SDS011;50896;46.714;17.322;2024-02-04T08:38:29;30.38;;;17.77;;
64520;SDS011;50896;46.714;17.322;2024-02-04T08:40:56;29.02;;;17.35;;
64520;SDS011;50896;46.714;17.322;2024-02-04T08:43:23;33.38;;;18.77;;
64520;SDS011;50896;46.714;17.322;2024-02-04T08:45:50;24.98;;;16.17;;
64520;SDS011;50896;46.714;17.322;2024-02-04T08:48:17;23.90;;;14.20;;
64520;SDS011;50896;46.714;17.322;2024-02-04T08:50:44;22.70;;;14.52;;
64520;SDS011;50896;46.714;17.322;2024-02-04T08:53:11;29.05;;;17.10;;
64520;SDS011;50896;46.714;17.322;2024-02-04T08:55:37;24.60;;;14.70;;
64520;SDS011;50896;46.714;17.322;2024-02-04T08:58:04;22.63;;;14.52;;
64520;SDS011;50896;46.714;17.322;2024-02-04T09:00:31;18.80;;;11.70;;
64520;SDS011;50896;46.714;17.322;2024-02-04T09:02:58;20.50;;;13.10;;
64520;SDS011;50896;46.714;17.322;2024-02-04T09:05:25;20.80;;;12.85;;
64520;SDS011;50896;46.714;17.322;2024-02-04T09:07:52;19.50;;;12.43;;
64520;SDS011;50896;46.714;17.322;2024-02-04T09:10:21;16.83;;;11.65;;
64520;SDS011;50896;46.714;17.322;2024-02-04T09:12:48;19.73;;;12.23;;
64520;SDS011;50896;46.714;17.322;2024-02-04T09:15:15;18.08;;;12.00;;
64520;SDS011;50896;46.714;17.322;2024-02-04T09:17:42;15.38;;;11.27;;
64520;SDS011;50896;46.714;17.322;2024-02-04T09:20:09;18.13;;;11.40;;
64520;SDS011;50896;46.714;17.322;2024-02-04T09:22:37;19.85;;;11.93;;
64520;SDS011;50896;46.714;17.322;2024-02-04T09:25:04;16.85;;;11.40;;
64520;SDS011;50896;46.714;17.322;2024-02-04T09:27:32;15.52;;;10.63;;
64520;SDS011;50896;46.714;17.322;2024-02-04T09:29:59;15.88;;;11.50;;
64520;SDS011;50896;46.714;17.322;2024-02-04T09:32:26;23.27;;;11.32;;
64520;SDS011;50896;46.714;17.322;2024-02-04T09:34:53;22.02;;;14.48;;
64520;SDS011;50896;46.714;17.322;2024-02-04T09:37:20;21.75;;;13.55;;
64520;SDS011;50896;46.714;17.322;2024-02-04T09:39:47;21.83;;;12.85;;
64520;SDS011;50896;46.714;17.322;2024-02-04T09:42:18;18.45;;;12.98;;
64520;SDS011;50896;46.714;17.322;2024-02-04T09:44:48;18.80;;;11.23;;
64520;SDS011;50896;46.714;17.322;2024-02-04T09:47:15;16.50;;;11.20;;
64520;SDS011;50896;46.714;17.322;2024-02-04T09:49:43;17.48;;;11.10;;
64520;SDS011;50896;46.714;17.322;2024-02-04T09:52:10;16.17;;;10.52;;
64520;SDS011;50896;46.714;17.322;2024-02-04T09:54:44;18.48;;;10.98;;
64520;SDS011;50896;46.714;17.322;2024-02-04T09:57:14;16.83;;;10.93;;
64520;SDS011;50896;46.714;17.322;2024-02-04T09:59:45;17.08;;;11.48;;
64520;SDS011;50896;46.714;17.322;2024-02-04T10:02:13;16.42;;;10.80;;
64520;SDS011;50896;46.714;17.322;2024-02-04T10:04:46;17.63;;;11.10;;
64520;SDS011;50896;46.714;17.322;2024-02-04T10:07:14;17.80;;;11.13;;
64520;SDS011;50896;46.714;17.322;2024-02-04T10:09:43;17.27;;;11.45;;
64520;SDS011;50896;46.714;17.322;2024-02-04T10:12:10;19.35;;;11.18;;
64520;SDS011;50896;46.714;17.322;2024-02-04T10:14:37;18.05;;;11.93;;
64520;SDS011;50896;46.714;17.322;2024-02-04T10:17:04;16.65;;;11.20;;
64520;SDS011;50896;46.714;17.322;2024-02-04T10:19:31;18.13;;;12.45;;
64520;SDS011;50896;46.714;17.322;2024-02-04T10:22:01;16.67;;;11.25;;
64520;SDS011;50896;46.714;17.322;2024-02-04T10:24:29;17.15;;;11.25;;
64520;SDS011;50896;46.714;17.322;2024-02-04T10:26:57;20.25;;;12.80;;
64520;SDS011;50896;46.714;17.322;2024-02-04T10:29:25;19.75;;;12.07;;
64520;SDS011;50896;46.714;17.322;2024-02-04T10:31:53;23.02;;;14.23;;
64520;SDS011;50896;46.714;17.322;2024-02-04T10:34:21;26.40;;;15.80;;
64520;SDS011;50896;46.714;17.322;2024-02-04T10:36:48;25.17;;;14.80;;
64520;SDS011;50896;46.714;17.322;2024-02-04T10:39:15;20.42;;;13.20;;
64520;SDS011;50896;46.714;17.322;2024-02-04T10:41:49;29.80;;;16.52;;
64520;SDS011;50896;46.714;17.322;2024-02-04T10:44:21;27.05;;;15.50;;
64520;SDS011;50896;46.714;17.322;2024-02-04T10:46:50;19.13;;;13.07;;
64520;SDS011;50896;46.714;17.322;2024-02-04T10:49:18;24.38;;;14.32;;
64520;SDS011;50896;46.714;17.322;2024-02-04T10:51:46;23.95;;;14.73;;
64520;SDS011;50896;46.714;17.322;2024-02-04T10:54:15;19.38;;;13.52;;
64520;SDS011;50896;46.714;17.322;2024-02-04T10:56:44;20.43;;;12.20;;
64520;SDS011;50896;46.714;17.322;2024-02-04T10:59:16;18.98;;;12.25;;
64520;SDS011;50896;46.714;17.322;2024-02-04T11:01:46;19.15;;;11.82;;
64520;SDS011;50896;46.714;17.322;2024-02-04T11:04:16;18.52;;;12.05;;
64520;SDS011;50896;46.714;17.322;2024-02-04T11:06:44;19.35;;;12.13;;
64520;SDS011;50896;46.714;17.322;2024-02-04T11:09:12;20.92;;;13.32;;
64520;SDS011;50896;46.714;17.322;2024-02-04T11:11:40;18.90;;;12.07;;
64520;SDS011;50896;46.714;17.322;2024-02-04T11:14:09;19.40;;;12.63;;
64520;SDS011;50896;46.714;17.322;2024-02-04T11:25:02;25.20;;;13.55;;
64520;SDS011;50896;46.714;17.322;2024-02-04T11:27:51;18.77;;;11.98;;
64520;SDS011;50896;46.714;17.322;2024-02-04T11:30:19;22.23;;;12.65;;
64520;SDS011;50896;46.714;17.322;2024-02-04T11:32:46;21.95;;;11.95;;
64520;SDS011;50896;46.714;17.322;2024-02-04T11:35:13;16.52;;;11.32;;
64520;SDS011;50896;46.714;17.322;2024-02-04T11:37:40;22.23;;;12.75;;
64520;SDS011;50896;46.714;17.322;2024-02-04T11:40:13;16.58;;;12.10;;
64520;SDS011;50896;46.714;17.322;2024-02-04T11:42:42;19.27;;;12.40;;
64520;SDS011;50896;46.714;17.322;2024-02-04T11:45:10;21.50;;;12.52;;
64520;SDS011;50896;46.714;17.322;2024-02-04T11:47:39;23.63;;;13.90;;
64520;SDS011;50896;46.714;17.322;2024-02-04T11:50:07;19.60;;;13.98;;
64520;SDS011;50896;46.714;17.322;2024-02-04T11:52:36;19.77;;;12.57;;
64520;SDS011;50896;46.714;17.322;2024-02-04T11:55:04;20.13;;;12.68;;
64520;SDS011;50896;46.714;17.322;2024-02-04T11:57:34;21.10;;;12.48;;
64520;SDS011;50896;46.714;17.322;2024-02-04T12:00:01;24.80;;;13.32;;
64520;SDS011;50896;46.714;17.322;2024-02-04T12:02:32;23.90;;;13.13;;
64520;SDS011;50896;46.714;17.322;2024-02-04T12:04:59;21.70;;;12.73;;
64520;SDS011;50896;46.714;17.322;2024-02-04T12:07:27;18.30;;;12.13;;
64520;SDS011;50896;46.714;17.322;2024-02-04T12:09:56;19.70;;;12.05;;
64520;SDS011;50896;46.714;17.322;2024-02-04T12:12:24;22.35;;;12.45;;
64520;SDS011;50896;46.714;17.322;2024-02-04T12:14:52;17.52;;;11.70;;
64520;SDS011;50896;46.714;17.322;2024-02-04T12:17:19;17.50;;;11.98;;
64520;SDS011;50896;46.714;17.322;2024-02-04T12:19:46;17.73;;;12.00;;
64520;SDS011;50896;46.714;17.322;2024-02-04T12:22:14;20.17;;;13.48;;
64520;SDS011;50896;46.714;17.322;2024-02-04T12:24:41;18.35;;;12.60;;
64520;SDS011;50896;46.714;17.322;2024-02-04T12:27:08;20.35;;;12.88;;
64520;SDS011;50896;46.714;17.322;2024-02-04T12:29:35;19.17;;;12.32;;
64520;SDS011;50896;46.714;17.322;2024-02-04T12:32:03;20.02;;;12.52;;
64520;SDS011;50896;46.714;17.322;2024-02-04T12:34:30;19.13;;;13.07;;
64520;SDS011;50896;46.714;17.322;2024-02-04T12:37:01;20.92;;;12.70;;
64520;SDS011;50896;46.714;17.322;2024-02-04T12:39:28;17.98;;;12.00;;
64520;SDS011;50896;46.714;17.322;2024-02-04T12:41:56;23.77;;;13.40;;
64520;SDS011;50896;46.714;17.322;2024-02-04T12:44:22;18.95;;;12.23;;
64520;SDS011;50896;46.714;17.322;2024-02-04T12:46:50;18.40;;;12.57;;
64520;SDS011;50896;46.714;17.322;2024-02-04T12:49:18;19.95;;;13.10;;
64520;SDS011;50896;46.714;17.322;2024-02-04T12:51:48;16.13;;;11.60;;
64520;SDS011;50896;46.714;17.322;2024-02-04T12:54:15;17.63;;;12.10;;
64520;SDS011;50896;46.714;17.322;2024-02-04T12:56:49;18.00;;;12.63;;
64520;SDS011;50896;46.714;17.322;2024-02-04T12:59:28;19.30;;;12.68;;
64520;SDS011;50896;46.714;17.322;2024-02-04T13:01:58;16.85;;;11.75;;
64520;SDS011;50896;46.714;17.322;2024-02-04T13:04:33;19.13;;;11.95;;
64520;SDS011;50896;46.714;17.322;2024-02-04T13:07:06;19.65;;;11.85;;
64520;SDS011;50896;46.714;17.322;2024-02-04T13:09:34;21.25;;;12.30;;
64520;SDS011;50896;46.714;17.322;2024-02-04T13:12:07;19.10;;;12.43;;
64520;SDS011;50896;46.714;17.322;2024-02-04T13:14:35;18.30;;;12.23;;
64520;SDS011;50896;46.714;17.322;2024-02-04T13:17:03;20.35;;;12.18;;
64520;SDS011;50896;46.714;17.322;2024-02-04T13:19:37;19.35;;;12.05;;
64520;SDS011;50896;46.714;17.322;2024-02-04T13:22:06;20.25;;;10.93;;
64520;SDS011;50896;46.714;17.322;2024-02-04T13:24:33;18.42;;;11.50;;
64520;SDS011;50896;46.714;17.322;2024-02-04T13:27:01;16.48;;;11.00;;
64520;SDS011;50896;46.714;17.322;2024-02-04T13:29:30;16.73;;;11.82;;
64520;SDS011;50896;46.714;17.322;2024-02-04T13:31:57;17.98;;;11.35;;
64520;SDS011;50896;46.714;17.322;2024-02-04T13:34:24;17.40;;;11.73;;
64520;SDS011;50896;46.714;17.322;2024-02-04T13:36:51;19.17;;;12.02;;
64520;SDS011;50896;46.714;17.322;2024-02-04T13:39:18;20.52;;;12.43;;
64520;SDS011;50896;46.714;17.322;2024-02-04T13:41:45;18.70;;;11.40;;
64520;SDS011;50896;46.714;17.322;2024-02-04T13:44:12;16.77;;;11.27;;
64520;SDS011;50896;46.714;17.322;2024-02-04T13:46:39;18.48;;;11.38;;
64520;SDS011;50896;46.714;17.322;2024-02-04T13:49:09;17.67;;;11.45;;
64520;SDS011;50896;46.714;17.322;2024-02-04T13:51:36;16.77;;;10.90;;
64520;SDS011;50896;46.714;17.322;2024-02-04T13:54:11;16.73;;;11.95;;
64520;SDS011;50896;46.714;17.322;2024-02-04T13:56:44;19.50;;;11.85;;
64520;SDS011;50896;46.714;17.322;2024-02-04T13:59:12;16.25;;;11.10;;
64520;SDS011;50896;46.714;17.322;2024-02-04T14:01:39;17.70;;;11.68;;
64520;SDS011;50896;46.714;17.322;2024-02-04T14:04:06;17.35;;;11.70;;
64520;SDS011;50896;46.714;17.322;2024-02-04T14:06:33;20.77;;;12.40;;
64520;SDS011;50896;46.714;17.322;2024-02-04T14:09:00;20.10;;;11.38;;
64520;SDS011;50896;46.714;17.322;2024-02-04T14:11:27;17.60;;;11.07;;
64520;SDS011;50896;46.714;17.322;2024-02-04T14:13:54;18.58;;;11.55;;
64520;SDS011;50896;46.714;17.322;2024-02-04T14:16:21;21.73;;;11.60;;
64520;SDS011;50896;46.714;17.322;2024-02-04T14:18:47;17.58;;;11.77;;
64520;SDS011;50896;46.714;17.322;2024-02-04T14:21:14;18.30;;;11.32;;
64520;SDS011;50896;46.714;17.322;2024-02-04T14:23:41;16.52;;;10.90;;
64520;SDS011;50896;46.714;17.322;2024-02-04T14:26:16;16.20;;;10.82;;
64520;SDS011;50896;46.714;17.322;2024-02-04T14:28:44;16.50;;;10.73;;
64520;SDS011;50896;46.714;17.322;2024-02-04T14:31:11;17.25;;;10.20;;